createdAt,value
2022-09-23T00:00:13.144Z,100555.81
2022-09-23T00:01:14.911Z,100553.03
2022-09-23T00:02:16.902Z,100560.59
2022-09-23T00:03:20.270Z,100560.88
2022-09-23T00:04:21.816Z,100557.53
2022-09-23T00:05:23.311Z,100560.34
2022-09-23T00:06:24.879Z,100555.84
2022-09-23T00:07:26.358Z,100558.66
2022-09-23T00:08:28.024Z,100555.56
2022-09-23T00:09:29.454Z,100562.00
2022-09-23T00:10:33.599Z,100560.34
2022-09-23T00:11:35.058Z,100555.31
2022-09-23T00:12:36.515Z,100552.50
2022-09-23T00:13:38.235Z,100548.00
2022-09-23T00:14:39.713Z,100555.59
2022-09-23T00:15:41.188Z,100563.16
2022-09-23T00:16:42.747Z,100554.19
2022-09-23T00:17:44.503Z,100556.16
2022-09-23T00:18:46.082Z,100560.09
2022-09-23T00:19:48.323Z,100557.56
2022-09-23T00:20:49.785Z,100554.19
2022-09-23T00:21:51.237Z,100559.81
2022-09-23T00:22:53.371Z,100556.44
2022-09-23T00:23:54.866Z,100557.56
2022-09-23T00:24:56.331Z,100556.75
2022-09-23T00:26:01.206Z,100557.03
2022-09-23T00:27:02.738Z,100553.66
2022-09-23T00:28:04.246Z,100553.66
2022-09-23T00:29:05.667Z,100557.59
2022-09-23T00:30:07.502Z,100559.81
2022-09-23T00:31:13.525Z,100555.06
2022-09-23T00:32:15.196Z,100559.81
2022-09-23T00:33:16.647Z,100559.28
2022-09-23T00:34:18.071Z,100565.72
2022-09-23T00:35:19.763Z,100555.91
2022-09-23T00:36:21.183Z,100552.28
2022-09-23T00:37:22.706Z,100553.69
2022-09-23T00:38:24.131Z,100558.44
2022-09-23T00:39:26.390Z,100552.00
2022-09-23T00:40:27.874Z,100550.31
2022-09-23T00:41:29.495Z,100550.63
2022-09-23T00:42:30.974Z,100553.41
2022-09-23T00:43:39.262Z,100552.56
2022-09-23T00:44:42.038Z,100546.13
2022-09-23T00:45:45.275Z,100548.34
2022-09-23T00:46:46.818Z,100555.91
2022-09-23T00:47:52.383Z,100549.75
2022-09-23T00:48:59.290Z,100544.44
2022-09-23T00:50:01.754Z,100547.25
2022-09-23T00:51:03.292Z,100543.03
2022-09-23T00:52:09.276Z,100547.81
2022-09-23T00:53:11.637Z,100541.38
2022-09-23T00:54:13.093Z,100539.69
2022-09-23T00:55:18.481Z,100541.94
2022-09-23T00:56:20.215Z,100534.63
2022-09-23T00:57:21.775Z,100542.19
2022-09-23T00:58:31.191Z,100539.69
2022-09-23T00:59:32.806Z,100533.50
2022-09-23T01:00:35.556Z,100539.13
2022-09-23T01:01:37.573Z,100534.09
2022-09-23T01:02:39.457Z,100540.81
2022-09-23T01:03:44.663Z,100534.38
2022-09-23T01:04:46.140Z,100541.94
2022-09-23T01:05:47.606Z,100540.25
2022-09-23T01:06:49.240Z,100538.00
2022-09-23T01:07:50.863Z,100538.00
2022-09-23T01:08:52.336Z,100539.13
2022-09-23T01:09:53.854Z,100531.00
2022-09-23T01:11:14.336Z,100532.97
2022-09-23T01:12:18.587Z,100524.84
2022-09-23T01:13:20.239Z,100536.06
2022-09-23T01:14:21.812Z,100529.59
2022-09-23T01:15:42.123Z,100525.41
2022-09-23T01:16:44.487Z,100521.75
2022-09-23T01:17:50.691Z,100527.38
2022-09-23T01:18:57.520Z,100525.69
2022-09-23T01:20:17.871Z,100516.72
2022-09-23T01:21:19.403Z,100522.34
2022-09-23T01:22:21.838Z,100519.78
2022-09-23T01:23:23.418Z,100527.34
2022-09-23T01:24:30.922Z,100514.47
2022-09-23T01:25:35.131Z,100526.81
2022-09-23T01:26:52.388Z,100520.59
2022-09-23T01:28:05.604Z,100520.88
2022-09-23T01:29:25.641Z,100519.22
2022-09-23T01:30:39.333Z,100518.94
2022-09-23T01:31:52.948Z,100514.44
2022-09-23T01:32:57.322Z,100519.47
2022-09-23T01:34:02.195Z,100511.34
2022-09-23T01:35:03.955Z,100515.28
2022-09-23T01:36:23.880Z,100521.16
2022-09-23T01:37:28.667Z,100518.38
2022-09-23T01:38:33.056Z,100517.81
2022-09-23T01:39:35.301Z,100516.13
2022-09-23T01:40:36.982Z,100514.44
2022-09-23T01:41:44.474Z,100512.78
2022-09-23T01:42:48.069Z,100519.50
2022-09-23T01:43:52.711Z,100508.28
2022-09-23T01:45:00.344Z,100510.50
2022-09-23T01:46:01.809Z,100514.44
2022-09-23T01:47:14.181Z,100514.72
2022-09-23T01:48:15.759Z,100510.22
2022-09-23T01:49:22.183Z,100506.59
2022-09-23T01:50:46.580Z,100516.13
2022-09-23T01:51:49.468Z,100511.63
2022-09-23T01:52:50.959Z,100509.13
2022-09-23T01:53:54.702Z,100509.97
2022-09-23T01:55:16.132Z,100510.53
2022-09-23T01:56:23.258Z,100508.81
2022-09-23T01:57:27.564Z,100512.75
2022-09-23T01:58:35.246Z,100501.81
2022-09-23T01:59:38.209Z,100513.88
2022-09-23T02:00:40.822Z,100506.59
2022-09-23T02:02:02.632Z,100511.63
2022-09-23T02:03:07.794Z,100508.81
2022-09-23T02:04:11.555Z,100509.94
2022-09-23T02:05:14.858Z,100508.25
2022-09-23T02:06:23.369Z,100512.19
2022-09-23T02:07:25.857Z,100512.19
2022-09-23T02:08:29.502Z,100504.06
2022-09-23T02:09:35.845Z,100514.44
2022-09-23T02:10:52.831Z,100516.09
2022-09-23T02:11:55.028Z,100514.44
2022-09-23T02:12:57.783Z,100511.91
2022-09-23T02:14:04.242Z,100511.06
2022-09-23T02:15:09.363Z,100504.59
2022-09-23T02:16:13.261Z,100513.28
2022-09-23T02:17:15.894Z,100516.09
2022-09-23T02:18:19.734Z,100507.97
2022-09-23T02:19:27.125Z,100507.13
2022-09-23T02:20:30.592Z,100512.16
2022-09-23T02:21:36.063Z,100505.72
2022-09-23T02:22:41.212Z,100507.13
2022-09-23T02:23:43.363Z,100509.09
2022-09-23T02:24:45.162Z,100504.59
2022-09-23T02:25:55.507Z,100504.59
2022-09-23T02:27:06.023Z,100505.97
2022-09-23T02:28:19.003Z,100500.38
2022-09-23T02:29:24.754Z,100499.81
2022-09-23T02:30:29.982Z,100503.75
2022-09-23T02:31:49.976Z,100500.94
2022-09-23T02:32:55.622Z,100497.59
2022-09-23T02:33:57.039Z,100500.66
2022-09-23T02:35:06.130Z,100498.16
2022-09-23T02:36:12.332Z,100498.16
2022-09-23T02:37:17.097Z,100498.16
2022-09-23T02:38:29.603Z,100487.50
2022-09-23T02:39:34.698Z,100498.69
2022-09-23T02:40:57.476Z,100497.03
2022-09-23T02:42:05.986Z,100501.75
2022-09-23T02:43:10.248Z,100487.47
2022-09-23T02:44:12.739Z,100483.00
2022-09-23T02:45:14.478Z,100490.28
2022-09-23T02:46:15.991Z,100493.34
2022-09-23T02:47:17.874Z,100493.63
2022-09-23T02:48:23.227Z,100491.94
2022-09-23T02:49:30.831Z,100494.75
2022-09-23T02:50:32.530Z,100486.91
2022-09-23T02:51:38.182Z,100488.59
2022-09-23T02:52:39.655Z,100492.50
2022-09-23T02:53:41.230Z,100488.03
2022-09-23T02:54:42.726Z,100491.09
2022-09-23T02:55:44.184Z,100489.13
2022-09-23T02:56:45.699Z,100480.72
2022-09-23T02:57:48.249Z,100472.63
2022-09-23T02:58:50.279Z,100474.56
2022-09-23T02:59:51.890Z,100482.41
2022-09-23T03:01:05.142Z,100480.44
2022-09-23T03:02:17.412Z,100476.25
2022-09-23T03:03:25.030Z,100481.00
2022-09-23T03:04:35.695Z,100482.97
2022-09-23T03:05:38.059Z,100477.66
2022-09-23T03:06:45.759Z,100482.41
2022-09-23T03:07:58.718Z,100474.28
2022-09-23T03:09:08.623Z,100482.69
2022-09-23T03:10:12.556Z,100477.38
2022-09-23T03:11:14.051Z,100480.16
2022-09-23T03:12:36.277Z,100477.91
2022-09-23T03:14:05.093Z,100481.81
2022-09-23T03:15:09.196Z,100487.41
2022-09-23T03:16:10.641Z,100489.66
2022-09-23T03:17:19.939Z,100476.78
2022-09-23T03:18:31.657Z,100483.47
2022-09-23T03:19:35.134Z,100481.81
2022-09-23T03:20:38.290Z,100477.31
2022-09-23T03:21:45.163Z,100477.59
2022-09-23T03:22:51.548Z,100474.81
2022-09-23T03:23:53.026Z,100477.84
2022-09-23T03:24:54.547Z,100477.84
2022-09-23T03:25:56.111Z,100482.59
2022-09-23T03:27:00.178Z,100473.66
2022-09-23T03:28:01.779Z,100478.41
2022-09-23T03:29:04.203Z,100472.81
2022-09-23T03:30:06.136Z,100478.41
2022-09-23T03:31:08.328Z,100475.88
2022-09-23T03:32:09.836Z,100475.06
2022-09-23T03:33:12.527Z,100469.47
2022-09-23T03:34:16.418Z,100473.38
2022-09-23T03:35:17.983Z,100474.22
2022-09-23T03:36:39.662Z,100471.41
2022-09-23T03:37:49.934Z,100470.00
2022-09-23T03:38:52.800Z,100463.56
2022-09-23T03:39:55.211Z,100466.66
2022-09-23T03:40:56.672Z,100470.56
2022-09-23T03:41:59.031Z,100465.22
2022-09-23T03:43:01.489Z,100469.13
2022-09-23T03:44:03.134Z,100464.66
2022-09-23T03:45:07.294Z,100467.69
2022-09-23T03:46:08.803Z,100462.09
2022-09-23T03:47:12.395Z,100466.03
2022-09-23T03:48:15.699Z,100459.88
2022-09-23T03:49:18.178Z,100464.91
2022-09-23T03:50:20.863Z,100464.06
2022-09-23T03:51:23.752Z,100471.88
2022-09-23T03:52:25.581Z,100468.25
2022-09-23T03:53:27.089Z,100463.72
2022-09-23T03:54:33.401Z,100465.69
2022-09-23T03:55:39.318Z,100465.97
2022-09-23T03:56:40.815Z,100459.81
2022-09-23T03:57:42.429Z,100469.03
2022-09-23T03:58:46.446Z,100468.19
2022-09-23T03:59:48.971Z,100459.25
2022-09-23T04:00:50.599Z,100466.53
2022-09-23T04:01:52.261Z,100461.47
2022-09-23T04:02:53.810Z,100460.63
2022-09-23T04:03:55.318Z,100461.47
2022-09-23T04:04:57.379Z,100469.03
2022-09-23T04:05:58.939Z,100464.22
2022-09-23T04:07:00.469Z,100462.56
2022-09-23T04:08:02.014Z,100468.69
2022-09-23T04:09:03.549Z,100463.66
2022-09-23T04:10:05.547Z,100461.97
2022-09-23T04:11:07.038Z,100461.41
2022-09-23T04:12:09.149Z,100458.63
2022-09-23T04:13:10.754Z,100459.47
2022-09-23T04:14:12.277Z,100464.22
2022-09-23T04:15:13.753Z,100464.22
2022-09-23T04:16:15.505Z,100456.94
2022-09-23T04:17:17.035Z,100460.56
2022-09-23T04:18:18.899Z,100469.81
2022-09-23T04:19:20.401Z,100464.22
2022-09-23T04:20:21.833Z,100459.72
2022-09-23T04:21:23.343Z,100459.97
2022-09-23T04:22:25.264Z,100466.41
2022-09-23T04:23:26.882Z,100464.72
2022-09-23T04:24:28.457Z,100472.56
2022-09-23T04:25:29.892Z,100465.81
2022-09-23T04:26:31.663Z,100459.66
2022-09-23T04:27:37.418Z,100459.34
2022-09-23T04:28:39.328Z,100458.78
2022-09-23T04:29:40.826Z,100457.94
2022-09-23T04:30:46.174Z,100459.06
2022-09-23T04:31:47.798Z,100463.53
2022-09-23T04:32:50.003Z,100451.50
2022-09-23T04:33:54.796Z,100463.53
2022-09-23T04:34:56.260Z,100451.50
2022-09-23T04:35:57.799Z,100457.66
2022-09-23T04:36:59.306Z,100458.78
2022-09-23T04:38:00.726Z,100454.03
2022-09-23T04:39:02.272Z,100460.47
2022-09-23T04:40:04.036Z,100454.03
2022-09-23T04:41:08.663Z,100454.88
2022-09-23T04:42:10.160Z,100458.50
2022-09-23T04:43:13.551Z,100455.72
2022-09-23T04:44:15.224Z,100459.63
2022-09-23T04:45:16.730Z,100462.16
2022-09-23T04:46:18.257Z,100452.06
2022-09-23T04:47:19.802Z,100448.16
2022-09-23T04:48:21.240Z,100458.50
2022-09-23T04:49:23.580Z,100450.13
2022-09-23T04:50:26.108Z,100461.91
2022-09-23T04:51:27.783Z,100454.63
2022-09-23T04:52:30.043Z,100460.16
2022-09-23T04:53:33.991Z,100460.72
2022-09-23T04:54:35.573Z,100458.19
2022-09-23T04:55:37.018Z,100457.66
2022-09-23T04:56:39.418Z,100459.59
2022-09-23T04:57:41.371Z,100459.34
2022-09-23T04:58:43.294Z,100467.44
2022-09-23T04:59:45.281Z,100465.75
2022-09-23T05:00:46.967Z,100465.75
2022-09-23T05:01:49.242Z,100464.38
2022-09-23T05:02:50.715Z,100460.75
2022-09-23T05:03:52.996Z,100466.06
2022-09-23T05:04:55.045Z,100456.81
2022-09-23T05:05:59.881Z,100459.63
2022-09-23T05:07:03.529Z,100464.69
2022-09-23T05:08:05.161Z,100466.66
2022-09-23T05:09:07.345Z,100459.09
2022-09-23T05:10:08.891Z,100469.44
2022-09-23T05:11:10.387Z,100471.13
2022-09-23T05:12:11.989Z,100469.16
2022-09-23T05:13:13.554Z,100464.69
2022-09-23T05:14:15.092Z,100471.97
2022-09-23T05:15:16.608Z,100471.13
2022-09-23T05:16:18.339Z,100467.22
2022-09-23T05:17:20.949Z,100473.66
2022-09-23T05:18:22.475Z,100464.44
2022-09-23T05:19:24.172Z,100468.06
2022-09-23T05:20:25.762Z,100467.22
2022-09-23T05:21:31.309Z,100472.81
2022-09-23T05:22:32.803Z,100470.28
2022-09-23T05:23:34.304Z,100472.47
2022-09-23T05:24:36.183Z,100476.41
2022-09-23T05:25:38.510Z,100476.41
2022-09-23T05:26:40.048Z,100473.31
2022-09-23T05:27:42.263Z,100478.91
2022-09-23T05:28:43.781Z,100469.69
2022-09-23T05:29:45.247Z,100466.91
2022-09-23T05:30:46.834Z,100478.91
2022-09-23T05:31:48.369Z,100474.19
2022-09-23T05:32:49.831Z,100472.47
2022-09-23T05:33:52.057Z,100472.47
2022-09-23T05:34:55.121Z,100469.69
2022-09-23T05:35:56.575Z,100472.47
2022-09-23T05:36:58.368Z,100481.97
2022-09-23T05:38:00.300Z,100476.41
2022-09-23T05:39:01.895Z,100478.34
2022-09-23T05:40:03.506Z,100470.81
2022-09-23T05:41:05.978Z,100471.66
2022-09-23T05:42:07.465Z,100468.59
2022-09-23T05:43:09.186Z,100475.03
2022-09-23T05:44:10.822Z,100475.03
2022-09-23T05:45:35.776Z,100468.59
2022-09-23T05:46:37.853Z,100481.47
2022-09-23T05:47:39.793Z,100466.38
2022-09-23T05:48:41.667Z,100472.81
2022-09-23T05:49:59.162Z,100471.13
2022-09-23T05:51:01.657Z,100471.97
2022-09-23T05:52:03.143Z,100475.59
2022-09-23T05:53:04.611Z,100481.47
2022-09-23T05:54:06.456Z,100471.13
2022-09-23T05:55:08.201Z,100478.41
2022-09-23T05:56:09.639Z,100475.59
2022-09-23T05:57:25.644Z,100475.31
2022-09-23T05:58:38.636Z,100468.91
2022-09-23T05:59:40.099Z,100482.59
2022-09-23T06:00:42.301Z,100480.66
2022-09-23T06:01:43.807Z,100473.66
2022-09-23T06:02:46.861Z,100477.31
2022-09-23T06:03:48.584Z,100478.72
2022-09-23T06:04:50.027Z,100476.75
2022-09-23T06:05:54.854Z,100480.97
2022-09-23T06:06:56.294Z,100477.06
2022-09-23T06:07:58.389Z,100474.84
2022-09-23T06:09:00.160Z,100477.34
2022-09-23T06:10:01.842Z,100473.44
2022-09-23T06:11:05.831Z,100480.16
2022-09-23T06:12:07.459Z,100482.44
2022-09-23T06:13:09.123Z,100472.38
2022-09-23T06:14:13.904Z,100471.00
2022-09-23T06:15:15.446Z,100470.44
2022-09-23T06:16:17.001Z,100470.19
2022-09-23T06:17:18.496Z,100469.66
2022-09-23T06:18:20.016Z,100472.72
2022-09-23T06:19:21.555Z,100469.66
2022-09-23T06:20:23.059Z,100473.88
2022-09-23T06:21:24.561Z,100467.19
2022-09-23T06:22:35.757Z,100471.41
2022-09-23T06:23:41.438Z,100468.06
2022-09-23T06:24:43.403Z,100467.78
2022-09-23T06:25:44.872Z,100469.47
2022-09-23T06:26:46.563Z,100466.09
2022-09-23T06:27:56.886Z,100469.47
2022-09-23T06:28:58.378Z,100468.38
2022-09-23T06:29:59.876Z,100470.06
2022-09-23T06:31:03.203Z,100469.50
2022-09-23T06:32:05.153Z,100467.25
2022-09-23T06:33:06.649Z,100465.31
2022-09-23T06:34:13.122Z,100475.09
2022-09-23T06:35:25.575Z,100459.72
2022-09-23T06:36:40.178Z,100468.69
2022-09-23T06:37:45.150Z,100462.53
2022-09-23T06:38:49.278Z,100463.09
2022-09-23T06:39:50.742Z,100462.81
2022-09-23T06:40:52.617Z,100467.00
2022-09-23T06:41:54.305Z,100459.47
2022-09-23T06:42:57.810Z,100456.66
2022-09-23T06:43:59.328Z,100463.41
2022-09-23T06:45:02.111Z,100461.16
2022-09-23T06:46:04.395Z,100461.72
2022-09-23T06:47:06.045Z,100465.91
2022-09-23T06:48:08.324Z,100464.53
2022-09-23T06:49:10.621Z,100466.22
2022-09-23T06:50:12.669Z,100474.91
2022-09-23T06:51:19.771Z,100460.63
2022-09-23T06:52:21.232Z,100466.78
2022-09-23T06:53:25.769Z,100469.03
2022-09-23T06:54:28.963Z,100477.97
2022-09-23T06:55:30.487Z,100471.28
2022-09-23T06:56:37.814Z,100467.94
2022-09-23T06:57:41.498Z,100476.03
2022-09-23T06:58:43.136Z,100472.97
2022-09-23T06:59:44.946Z,100471.28
2022-09-23T07:00:46.375Z,100479.97
2022-09-23T07:01:48.346Z,100480.81
2022-09-23T07:02:50.101Z,100480.25
2022-09-23T07:03:52.115Z,100483.63
2022-09-23T07:04:57.416Z,100485.84
2022-09-23T07:05:59.131Z,100475.19
2022-09-23T07:07:00.618Z,100471.88
2022-09-23T07:08:03.052Z,100474.09
2022-09-23T07:09:05.754Z,100480.25
2022-09-23T07:10:07.335Z,100477.72
2022-09-23T07:11:13.380Z,100471.59
2022-09-23T07:12:15.023Z,100474.94
2022-09-23T07:13:16.554Z,100474.09
2022-09-23T07:14:18.315Z,100470.16
2022-09-23T07:15:19.765Z,100471.56
2022-09-23T07:16:21.364Z,100471.84
2022-09-23T07:17:24.424Z,100469.59
2022-09-23T07:18:26.120Z,100470.75
2022-09-23T07:19:27.635Z,100474.69
2022-09-23T07:20:29.731Z,100472.16
2022-09-23T07:21:31.160Z,100470.75
2022-09-23T07:22:32.663Z,100473.81
2022-09-23T07:23:34.198Z,100473.25
2022-09-23T07:24:35.654Z,100468.47
2022-09-23T07:25:37.123Z,100465.66
2022-09-23T07:26:43.493Z,100466.78
2022-09-23T07:27:49.593Z,100476.84
2022-09-23T07:28:55.419Z,100481.34
2022-09-23T07:29:57.271Z,100479.63
2022-09-23T07:31:03.213Z,100474.56
2022-09-23T07:32:13.115Z,100477.06
2022-09-23T07:33:28.157Z,100479.00
2022-09-23T07:34:32.797Z,100472.25
2022-09-23T07:35:34.238Z,100477.28
2022-09-23T07:36:37.419Z,100473.34
2022-09-23T07:37:39.728Z,100474.16
2022-09-23T07:38:45.225Z,100477.75
2022-09-23T07:39:47.174Z,100477.19
2022-09-23T07:40:49.181Z,100481.66
2022-09-23T07:41:50.718Z,100478.84
2022-09-23T07:42:52.185Z,100480.47
2022-09-23T07:43:55.350Z,100472.91
2022-09-23T07:44:57.071Z,100477.63
2022-09-23T07:45:59.378Z,100472.81
2022-09-23T07:47:00.947Z,100473.34
2022-09-23T07:48:02.491Z,100475.56
2022-09-23T07:49:04.421Z,100472.44
2022-09-23T07:50:06.354Z,100473.22
2022-09-23T07:51:12.764Z,100479.09
2022-09-23T07:52:14.316Z,100482.13
2022-09-23T07:53:16.019Z,100478.16
2022-09-23T07:54:18.270Z,100476.16
2022-09-23T07:55:21.077Z,100476.69
2022-09-23T07:56:26.086Z,100481.16
2022-09-23T07:57:27.573Z,100474.94
2022-09-23T07:58:29.025Z,100475.41
2022-09-23T07:59:30.504Z,100467.78
2022-09-23T08:00:32.759Z,100475.84
2022-09-23T08:01:38.069Z,100481.47
2022-09-23T08:02:40.232Z,100477.97
2022-09-23T08:03:41.707Z,100482.47
2022-09-23T08:04:43.213Z,100480.44
2022-09-23T08:05:45.946Z,100481.75
2022-09-23T08:06:48.438Z,100478.34
2022-09-23T08:07:49.955Z,100477.72
2022-09-23T08:08:53.425Z,100483.81
2022-09-23T08:09:55.550Z,100482.63
2022-09-23T08:11:01.052Z,100485.38
2022-09-23T08:12:02.542Z,100475.97
2022-09-23T08:13:04.039Z,100480.94
2022-09-23T08:14:07.865Z,100482.22
2022-09-23T08:15:09.450Z,100481.56
2022-09-23T08:16:11.023Z,100480.66
2022-09-23T08:17:12.780Z,100480.06
2022-09-23T08:18:14.243Z,100481.88
2022-09-23T08:19:15.806Z,100475.00
2022-09-23T08:20:37.234Z,100474.34
2022-09-23T08:21:39.541Z,100480.03
2022-09-23T08:22:41.038Z,100488.09
2022-09-23T08:23:42.528Z,100485.22
2022-09-23T08:24:44.035Z,100487.31
2022-09-23T08:25:48.134Z,100485.94
2022-09-23T08:26:51.389Z,100487.44
2022-09-23T08:27:52.901Z,100492.28
2022-09-23T08:28:54.650Z,100480.25
2022-09-23T08:29:56.132Z,100480.03
2022-09-23T08:30:57.678Z,100484.88
2022-09-23T08:31:59.498Z,100475.03
2022-09-23T08:33:01.019Z,100479.84
2022-09-23T08:34:02.724Z,100475.66
2022-09-23T08:35:04.302Z,100472.31
2022-09-23T08:36:05.986Z,100469.47
2022-09-23T08:37:11.167Z,100475.97
2022-09-23T08:38:12.678Z,100469.66
2022-09-23T08:39:15.443Z,100468.28
2022-09-23T08:40:17.040Z,100471.16
2022-09-23T08:41:37.167Z,100458.09
2022-09-23T08:42:39.305Z,100462.69
2022-09-23T08:43:45.416Z,100460.59
2022-09-23T08:44:48.263Z,100458.88
2022-09-23T08:45:51.136Z,100469.06
2022-09-23T08:46:54.688Z,100456.19
2022-09-23T08:47:56.454Z,100456.44
2022-09-23T08:48:57.920Z,100456.81
2022-09-23T08:49:59.432Z,100459.03
2022-09-23T08:51:27.190Z,100461.47
2022-09-23T08:52:28.673Z,100463.66
2022-09-23T08:53:35.038Z,100457.34
2022-09-23T08:54:36.507Z,100472.22
2022-09-23T08:55:39.571Z,100459.22
2022-09-23T08:56:41.039Z,100468.91
2022-09-23T08:58:24.359Z,100462.50
2022-09-23T08:59:36.847Z,100472.41
2022-09-23T09:00:42.076Z,100470.94
2022-09-23T09:01:48.226Z,100467.25
2022-09-23T09:02:49.937Z,100470.47
2022-09-23T09:03:52.497Z,100470.94
2022-09-23T09:04:54.537Z,100470.31
2022-09-23T09:05:56.827Z,100465.44
2022-09-23T09:07:31.814Z,100466.94
2022-09-23T09:08:31.275Z,100461.56
2022-09-23T09:09:46.270Z,100453.00
2022-09-23T09:10:47.851Z,100457.84
2022-09-23T09:11:49.616Z,100447.13
2022-09-23T09:12:54.074Z,100447.94
2022-09-23T09:14:10.903Z,100448.25
2022-09-23T09:15:13.093Z,100446.03
2022-09-23T09:16:55.504Z,100441.50
2022-09-23T09:18:11.269Z,100439.38
2022-09-23T09:19:15.458Z,100439.31
2022-09-23T09:20:24.187Z,100434.44
2022-09-23T09:21:32.460Z,100436.91
2022-09-23T09:22:39.839Z,100435.97
2022-09-23T09:23:57.358Z,100428.06
2022-09-23T09:25:04.154Z,100441.38
2022-09-23T09:26:05.811Z,100431.47
2022-09-23T09:27:10.936Z,100424.41
2022-09-23T09:28:12.375Z,100446.19
2022-09-23T09:29:31.262Z,100438.44
2022-09-23T09:30:36.291Z,100442.00
2022-09-23T09:31:47.749Z,100430.72
2022-09-23T09:32:55.232Z,100427.94
2022-09-23T09:34:00.872Z,100433.00
2022-09-23T09:35:05.713Z,100428.84
2022-09-23T09:36:09.492Z,100433.81
2022-09-23T09:37:13.714Z,100428.06
2022-09-23T09:38:15.266Z,100428.06
2022-09-23T09:39:17.247Z,100422.44
2022-09-23T09:40:20.366Z,100418.50
2022-09-23T09:41:24.593Z,100420.44
2022-09-23T09:42:40.262Z,100406.31
2022-09-23T09:43:44.173Z,100406.81
2022-09-23T09:44:55.394Z,100409.44
2022-09-23T09:46:04.183Z,100401.97
2022-09-23T09:47:26.936Z,100408.03
2022-09-23T09:48:32.451Z,100394.41
2022-09-23T09:49:45.813Z,100400.84
2022-09-23T09:50:51.881Z,100395.59
2022-09-23T09:52:11.542Z,100388.59
2022-09-23T09:53:26.158Z,100388.25
2022-09-23T09:54:28.592Z,100382.81
2022-09-23T09:55:30.183Z,100391.72
2022-09-23T09:56:32.183Z,100382.94
2022-09-23T09:57:37.166Z,100385.66
2022-09-23T09:58:41.622Z,100386.84
2022-09-23T09:59:44.085Z,100379.34
2022-09-23T10:00:46.060Z,100382.78
2022-09-23T10:01:47.604Z,100385.16
2022-09-23T10:02:52.468Z,100381.94
2022-09-23T10:03:55.690Z,100387.28
2022-09-23T10:05:00.970Z,100382.56
2022-09-23T10:06:03.495Z,100385.66
2022-09-23T10:07:06.492Z,100379.25
2022-09-23T10:08:23.272Z,100371.91
2022-09-23T10:09:24.735Z,100376.16
2022-09-23T10:10:32.745Z,100377.06
2022-09-23T10:11:34.958Z,100388.97
2022-09-23T10:12:43.356Z,100378.66
2022-09-23T10:14:00.764Z,100379.97
2022-09-23T10:15:02.217Z,100378.28
2022-09-23T10:16:04.012Z,100371.88
2022-09-23T10:17:06.089Z,100374.81
2022-09-23T10:18:20.998Z,100374.94
2022-09-23T10:19:25.827Z,100376.38
2022-09-23T10:20:31.745Z,100371.03
2022-09-23T10:21:36.607Z,100370.06
2022-09-23T10:22:40.409Z,100375.88
2022-09-23T10:23:45.564Z,100373.25
2022-09-23T10:24:50.841Z,100379.38
2022-09-23T10:26:02.535Z,100365.88
2022-09-23T10:27:07.712Z,100365.63
2022-09-23T10:28:30.719Z,100364.66
2022-09-23T10:29:32.967Z,100368.72
2022-09-23T10:30:38.447Z,100364.03
2022-09-23T10:31:40.076Z,100363.84
2022-09-23T10:32:44.917Z,100372.56
2022-09-23T10:33:49.671Z,100367.63
2022-09-23T10:35:09.423Z,100369.66
2022-09-23T10:36:11.061Z,100363.38
2022-09-23T10:37:21.515Z,100363.78
2022-09-23T10:38:22.960Z,100364.03
2022-09-23T10:39:43.136Z,100354.56
2022-09-23T10:41:03.492Z,100363.25
2022-09-23T10:42:25.458Z,100359.91
2022-09-23T10:43:45.433Z,100357.31
2022-09-23T10:45:24.491Z,100345.28
2022-09-23T10:46:47.573Z,100345.50
2022-09-23T10:47:49.108Z,100351.22
2022-09-23T10:49:04.676Z,100344.44
2022-09-23T10:50:08.180Z,100348.69
2022-09-23T10:51:25.959Z,100353.47
2022-09-23T10:52:38.026Z,100352.75
2022-09-23T10:53:44.202Z,100349.13
2022-09-23T10:54:54.470Z,100348.53
2022-09-23T10:56:14.883Z,100341.59
2022-09-23T10:57:43.399Z,100349.09
2022-09-23T10:58:50.394Z,100346.25
2022-09-23T10:59:51.903Z,100340.53
2022-09-23T11:01:02.583Z,100345.88
2022-09-23T11:02:07.119Z,100341.28
2022-09-23T11:03:12.207Z,100338.34
2022-09-23T11:04:14.082Z,100333.91
2022-09-23T11:05:18.868Z,100333.97
2022-09-23T11:06:20.288Z,100337.06
2022-09-23T11:07:36.954Z,100334.19
2022-09-23T11:09:08.151Z,100328.72
2022-09-23T11:10:46.722Z,100326.41
2022-09-23T11:11:54.839Z,100328.00
2022-09-23T11:13:01.485Z,100325.59
2022-09-23T11:14:17.012Z,100336.94
2022-09-23T11:15:41.380Z,100323.97
2022-09-23T11:16:42.822Z,100332.81
2022-09-23T11:18:03.095Z,100326.06
2022-09-23T11:19:23.186Z,100330.47
2022-09-23T11:20:30.656Z,100323.19
2022-09-23T11:21:35.254Z,100328.00
2022-09-23T11:22:37.950Z,100327.34
2022-09-23T11:23:39.536Z,100324.69
2022-09-23T11:25:07.177Z,100327.94
2022-09-23T11:26:12.323Z,100323.03
2022-09-23T11:27:21.572Z,100323.38
2022-09-23T11:28:46.061Z,100323.94
2022-09-23T11:29:50.526Z,100324.78
2022-09-23T11:30:58.126Z,100318.59
2022-09-23T11:32:10.103Z,100308.72
2022-09-23T11:33:20.995Z,100310.09
2022-09-23T11:34:45.357Z,100308.88
2022-09-23T11:35:50.725Z,100315.06
2022-09-23T11:36:59.823Z,100311.84
2022-09-23T11:38:03.218Z,100308.97
2022-09-23T11:39:15.599Z,100308.97
2022-09-23T11:40:17.793Z,100304.47
2022-09-23T11:41:32.975Z,100301.41
2022-09-23T11:42:36.542Z,100307.09
2022-09-23T11:43:39.308Z,100300.69
2022-09-23T11:44:44.536Z,100298.16
2022-09-23T11:45:45.978Z,100304.72
2022-09-23T11:46:50.117Z,100296.44
2022-09-23T11:47:53.559Z,100301.22
2022-09-23T11:49:18.435Z,100297.91
2022-09-23T11:50:19.945Z,100293.84
2022-09-23T11:51:22.344Z,100293.84
2022-09-23T11:52:36.753Z,100291.81
2022-09-23T11:53:41.014Z,100293.84
2022-09-23T11:54:46.644Z,100287.31
2022-09-23T11:55:57.513Z,100291.00
2022-09-23T11:57:00.496Z,100280.41
2022-09-23T11:58:08.341Z,100281.94
2022-09-23T11:59:39.115Z,100279.94
2022-09-23T12:00:49.160Z,100282.69
2022-09-23T12:02:11.976Z,100282.69
2022-09-23T12:03:43.154Z,100280.91
2022-09-23T12:04:55.574Z,100275.25
2022-09-23T12:06:12.508Z,100275.25
2022-09-23T12:07:14.924Z,100285.47
2022-09-23T12:08:25.492Z,100274.56
2022-09-23T12:09:57.793Z,100275.31
2022-09-23T12:10:59.574Z,100271.97
2022-09-23T12:12:05.270Z,100267.09
2022-09-23T12:13:34.054Z,100267.69
2022-09-23T12:14:38.590Z,100268.88
2022-09-23T12:15:47.734Z,100271.00
2022-09-23T12:17:14.355Z,100263.66
2022-09-23T12:18:18.439Z,100260.06
2022-09-23T12:19:29.892Z,100266.13
2022-09-23T12:20:32.140Z,100272.66
2022-09-23T12:21:59.375Z,100267.41
2022-09-23T12:23:33.492Z,100260.69
2022-09-23T12:24:46.744Z,100263.91
2022-09-23T12:25:48.158Z,100264.84
2022-09-23T12:26:50.575Z,100266.13